Elkhorn, Canada
Current Conditions -  °F | °C
As of 3:31 PM on Saturday 20 Dec 2014 (Local Time) from CYBR Reporting Station
Haze Haze  
Wind Chill: 14°   Ceiling: 200
Heat Index: 23°   Visibility: 0.75mi
Dew Point: 23°   Wind: 8mph
Humidity: 100%   Direction: 130°SE
Pressure: 29.84"   Gusts: NA
Location:  49.97°N, 101.25°W
Report Text: CYBR 202131Z 13007KT 3/4SM BR VV002 M05/M05 A2984 RMK FG8 SLP132
Loading
Personal Weather Stations






























Interactive Weather Map New forecast layout! Learn more

10-Day Weather Forecast

Advertisements
Track Severe Weather on mobile